Aérodrome :
LOGIN :

S'inscrire | Disclaimer

   EN    FR    IT 

 










Légende :    VFR   VFR Marginal   IFR   IFR Intensif   IFR Très Intensif
Visi : 
Plafond : 
>= 8 km
>= 3000ft
5 à 8 km
1000 à 3000 ft
1500m à 5 km
500 à 1000 ft
800 à 1500m
200 à 500 ft
< 800m
< 200 ft
Symboles :   Orages  Brouillard  Fortes neiges  Fortes précipitations  Vent > 20 kt
SIGMETs :   Divers  Orages  Givrage  Turbulence  Onde Orograph.  Cendres Volcan.






- Altitude de l'aérodrome : 158 ft
- Code IATA : QAR


EHDL - Deelen Airbase

DERNIER METAR :
  • 160555Z AUTO 21009KT 140V250 6000 -RA FEW009 SCT011 BKN013 10/09 Q1000 GRN

METARs EXPIRÉS :
  • 160525Z AUTO 20007KT 150V250 7000 BR FEW006 BKN008 BKN009 10/09 Q1000 GRN
  • 160455Z AUTO 20008KT 140V240 6000 BR FEW007 SCT012 OVC015 10/09 Q1000 GRN
  • 160425Z AUTO 20007KT 150V260 8000 BR FEW008 SCT009 OVC010 10/09 Q1000 GRN
  • 160355Z AUTO 20007KT 160V250 8000 BR SCT008 OVC009 10/09 Q1000 GRN
  • 160325Z AUTO 21006KT 140V280 7000 BR FEW006 SCT007 BKN008 FEW015CB 10/09 Q1000 GRN

Prévision TAF périmée.



MET'MAP, la Météo Aéronautique d'un coup d'oeil ! - Copyright ORBIFLY Décembre 2007 - Disclaimer

ORBIFLY MET'MAP TEAM :

Programmation & Développement : Alexandra Zaïnal
Sur une idée originale de : Baudouin d'Aumeries
Assistance à la programmation : Marc-Olivier Méhu
Soutien technique & logistique : Manuel Goepfert

Contact : metmap@orbifly.com




SOURCES & CREDITS :

   NOAA